sensor_id;sensor_type;location;lat;lon;timestamp;P1;durP1;ratioP1;P2;durP2;ratioP2
60169;SDS011;46042;49.444;6.862;2023-07-31T00:01:33;4.50;;;2.15;;
60169;SDS011;46042;49.444;6.862;2023-07-31T00:04:00;7.50;;;2.70;;
60169;SDS011;46042;49.444;6.862;2023-07-31T00:06:27;7.82;;;2.45;;
60169;SDS011;46042;49.444;6.862;2023-07-31T00:08:54;8.35;;;2.60;;
60169;SDS011;46042;49.444;6.862;2023-07-31T00:11:20;6.72;;;2.28;;
60169;SDS011;46042;49.444;6.862;2023-07-31T00:13:47;10.23;;;4.07;;
60169;SDS011;46042;49.444;6.862;2023-07-31T00:16:13;5.68;;;2.33;;
60169;SDS011;46042;49.444;6.862;2023-07-31T00:18:41;9.98;;;2.35;;
60169;SDS011;46042;49.444;6.862;2023-07-31T00:21:07;7.30;;;2.33;;
60169;SDS011;46042;49.444;6.862;2023-07-31T00:23:34;8.07;;;2.00;;
60169;SDS011;46042;49.444;6.862;2023-07-31T00:26:01;6.43;;;2.33;;
60169;SDS011;46042;49.444;6.862;2023-07-31T00:28:27;10.23;;;2.75;;
60169;SDS011;46042;49.444;6.862;2023-07-31T00:30:55;13.98;;;3.47;;
60169;SDS011;46042;49.444;6.862;2023-07-31T00:33:22;8.38;;;3.00;;
60169;SDS011;46042;49.444;6.862;2023-07-31T00:35:48;8.77;;;2.50;;
60169;SDS011;46042;49.444;6.862;2023-07-31T00:38:15;5.70;;;2.28;;
60169;SDS011;46042;49.444;6.862;2023-07-31T00:40:42;6.25;;;2.40;;
60169;SDS011;46042;49.444;6.862;2023-07-31T00:43:09;8.63;;;2.42;;
60169;SDS011;46042;49.444;6.862;2023-07-31T00:45:35;8.32;;;2.33;;
60169;SDS011;46042;49.444;6.862;2023-07-31T00:48:02;4.22;;;2.17;;
60169;SDS011;46042;49.444;6.862;2023-07-31T00:50:29;10.93;;;3.10;;
60169;SDS011;46042;49.444;6.862;2023-07-31T00:52:56;8.07;;;2.72;;
60169;SDS011;46042;49.444;6.862;2023-07-31T00:55:23;10.40;;;2.90;;
60169;SDS011;46042;49.444;6.862;2023-07-31T00:57:50;7.90;;;2.45;;
60169;SDS011;46042;49.444;6.862;2023-07-31T01:00:19;7.65;;;2.90;;
60169;SDS011;46042;49.444;6.862;2023-07-31T01:02:45;9.48;;;2.35;;
60169;SDS011;46042;49.444;6.862;2023-07-31T01:05:12;7.60;;;2.85;;
60169;SDS011;46042;49.444;6.862;2023-07-31T01:07:42;6.50;;;2.47;;
60169;SDS011;46042;49.444;6.862;2023-07-31T01:10:26;10.27;;;2.92;;
60169;SDS011;46042;49.444;6.862;2023-07-31T01:13:01;7.68;;;2.83;;
60169;SDS011;46042;49.444;6.862;2023-07-31T01:15:29;7.03;;;2.40;;
60169;SDS011;46042;49.444;6.862;2023-07-31T01:17:56;9.35;;;2.60;;
60169;SDS011;46042;49.444;6.862;2023-07-31T01:20:23;11.35;;;2.85;;
60169;SDS011;46042;49.444;6.862;2023-07-31T01:31:28;5.80;;;2.40;;
60169;SDS011;46042;49.444;6.862;2023-07-31T01:33:57;8.55;;;2.92;;
60169;SDS011;46042;49.444;6.862;2023-07-31T01:36:27;8.02;;;2.78;;
60169;SDS011;46042;49.444;6.862;2023-07-31T01:38:58;7.60;;;2.80;;
60169;SDS011;46042;49.444;6.862;2023-07-31T01:41:26;10.10;;;2.55;;
60169;SDS011;46042;49.444;6.862;2023-07-31T01:43:53;10.25;;;2.80;;
60169;SDS011;46042;49.444;6.862;2023-07-31T01:46:20;8.77;;;2.95;;
60169;SDS011;46042;49.444;6.862;2023-07-31T01:48:47;6.32;;;2.53;;
60169;SDS011;46042;49.444;6.862;2023-07-31T01:51:13;8.88;;;3.28;;
60169;SDS011;46042;49.444;6.862;2023-07-31T01:53:40;5.93;;;2.40;;
60169;SDS011;46042;49.444;6.862;2023-07-31T01:56:07;6.20;;;2.50;;
60169;SDS011;46042;49.444;6.862;2023-07-31T01:58:33;6.95;;;2.95;;
60169;SDS011;46042;49.444;6.862;2023-07-31T02:01:00;6.13;;;2.60;;
60169;SDS011;46042;49.444;6.862;2023-07-31T02:03:27;8.27;;;2.60;;
60169;SDS011;46042;49.444;6.862;2023-07-31T02:05:54;7.78;;;2.67;;
60169;SDS011;46042;49.444;6.862;2023-07-31T02:08:20;7.95;;;3.10;;
60169;SDS011;46042;49.444;6.862;2023-07-31T02:10:47;5.25;;;2.70;;
60169;SDS011;46042;49.444;6.862;2023-07-31T02:13:13;7.47;;;2.97;;
60169;SDS011;46042;49.444;6.862;2023-07-31T02:15:40;7.70;;;2.92;;
60169;SDS011;46042;49.444;6.862;2023-07-31T02:18:07;10.98;;;2.97;;
60169;SDS011;46042;49.444;6.862;2023-07-31T02:20:34;5.82;;;2.80;;
60169;SDS011;46042;49.444;6.862;2023-07-31T02:23:01;8.25;;;2.53;;
60169;SDS011;46042;49.444;6.862;2023-07-31T02:25:28;6.38;;;2.33;;
60169;SDS011;46042;49.444;6.862;2023-07-31T02:27:55;7.20;;;2.35;;
60169;SDS011;46042;49.444;6.862;2023-07-31T02:30:22;14.32;;;3.00;;
60169;SDS011;46042;49.444;6.862;2023-07-31T02:32:48;14.40;;;3.67;;
60169;SDS011;46042;49.444;6.862;2023-07-31T02:35:15;12.30;;;2.97;;
60169;SDS011;46042;49.444;6.862;2023-07-31T02:37:42;10.65;;;2.80;;
60169;SDS011;46042;49.444;6.862;2023-07-31T02:40:09;5.72;;;2.92;;
60169;SDS011;46042;49.444;6.862;2023-07-31T02:42:36;6.18;;;2.67;;
60169;SDS011;46042;49.444;6.862;2023-07-31T02:45:03;18.27;;;3.03;;
60169;SDS011;46042;49.444;6.862;2023-07-31T02:47:29;6.70;;;2.70;;
60169;SDS011;46042;49.444;6.862;2023-07-31T02:49:56;6.30;;;2.67;;
60169;SDS011;46042;49.444;6.862;2023-07-31T02:52:25;6.85;;;3.05;;
60169;SDS011;46042;49.444;6.862;2023-07-31T02:54:52;8.23;;;2.95;;
60169;SDS011;46042;49.444;6.862;2023-07-31T02:57:18;9.93;;;2.72;;
60169;SDS011;46042;49.444;6.862;2023-07-31T02:59:45;6.75;;;2.55;;
60169;SDS011;46042;49.444;6.862;2023-07-31T03:02:11;4.68;;;2.72;;
60169;SDS011;46042;49.444;6.862;2023-07-31T03:04:39;13.13;;;3.30;;
60169;SDS011;46042;49.444;6.862;2023-07-31T03:07:06;8.45;;;2.85;;
60169;SDS011;46042;49.444;6.862;2023-07-31T03:09:32;7.07;;;2.95;;
60169;SDS011;46042;49.444;6.862;2023-07-31T03:11:59;7.80;;;2.83;;
60169;SDS011;46042;49.444;6.862;2023-07-31T03:14:26;10.80;;;3.53;;
60169;SDS011;46042;49.444;6.862;2023-07-31T03:16:53;12.50;;;3.03;;
60169;SDS011;46042;49.444;6.862;2023-07-31T03:19:20;10.57;;;2.95;;
60169;SDS011;46042;49.444;6.862;2023-07-31T03:21:46;7.35;;;2.80;;
60169;SDS011;46042;49.444;6.862;2023-07-31T03:24:13;10.77;;;3.15;;
60169;SDS011;46042;49.444;6.862;2023-07-31T03:26:40;7.90;;;3.20;;
60169;SDS011;46042;49.444;6.862;2023-07-31T03:29:08;10.13;;;3.40;;
60169;SDS011;46042;49.444;6.862;2023-07-31T03:31:35;16.85;;;3.35;;
60169;SDS011;46042;49.444;6.862;2023-07-31T03:34:01;13.90;;;4.43;;
60169;SDS011;46042;49.444;6.862;2023-07-31T03:36:28;6.32;;;2.85;;
60169;SDS011;46042;49.444;6.862;2023-07-31T03:38:55;5.57;;;2.63;;
60169;SDS011;46042;49.444;6.862;2023-07-31T03:41:21;7.68;;;3.20;;
60169;SDS011;46042;49.444;6.862;2023-07-31T03:43:49;6.78;;;2.80;;
60169;SDS011;46042;49.444;6.862;2023-07-31T03:46:18;7.82;;;2.97;;
60169;SDS011;46042;49.444;6.862;2023-07-31T03:48:44;9.00;;;3.20;;
60169;SDS011;46042;49.444;6.862;2023-07-31T03:51:12;11.27;;;3.22;;
60169;SDS011;46042;49.444;6.862;2023-07-31T03:53:39;10.50;;;2.90;;
60169;SDS011;46042;49.444;6.862;2023-07-31T03:56:05;8.32;;;2.78;;
60169;SDS011;46042;49.444;6.862;2023-07-31T03:58:32;5.80;;;2.70;;
60169;SDS011;46042;49.444;6.862;2023-07-31T04:00:59;10.32;;;2.90;;
60169;SDS011;46042;49.444;6.862;2023-07-31T04:03:26;11.48;;;3.25;;
60169;SDS011;46042;49.444;6.862;2023-07-31T04:05:54;12.07;;;3.88;;
60169;SDS011;46042;49.444;6.862;2023-07-31T04:08:22;10.95;;;3.28;;
60169;SDS011;46042;49.444;6.862;2023-07-31T04:10:49;14.45;;;3.88;;
60169;SDS011;46042;49.444;6.862;2023-07-31T04:13:16;7.88;;;3.03;;
60169;SDS011;46042;49.444;6.862;2023-07-31T04:15:42;6.63;;;2.58;;
60169;SDS011;46042;49.444;6.862;2023-07-31T04:18:15;8.50;;;3.78;;
60169;SDS011;46042;49.444;6.862;2023-07-31T04:20:42;12.70;;;3.00;;
60169;SDS011;46042;49.444;6.862;2023-07-31T04:23:09;8.57;;;2.95;;
60169;SDS011;46042;49.444;6.862;2023-07-31T04:25:35;10.15;;;3.30;;
60169;SDS011;46042;49.444;6.862;2023-07-31T04:28:02;10.10;;;3.53;;
60169;SDS011;46042;49.444;6.862;2023-07-31T04:30:29;7.97;;;2.85;;
60169;SDS011;46042;49.444;6.862;2023-07-31T04:32:55;11.68;;;3.35;;
60169;SDS011;46042;49.444;6.862;2023-07-31T04:35:22;14.77;;;3.25;;
60169;SDS011;46042;49.444;6.862;2023-07-31T04:37:49;8.82;;;3.10;;
60169;SDS011;46042;49.444;6.862;2023-07-31T04:40:16;10.85;;;3.42;;
60169;SDS011;46042;49.444;6.862;2023-07-31T04:42:42;8.27;;;3.20;;
60169;SDS011;46042;49.444;6.862;2023-07-31T04:45:09;12.25;;;3.17;;
60169;SDS011;46042;49.444;6.862;2023-07-31T04:47:36;10.30;;;2.95;;
60169;SDS011;46042;49.444;6.862;2023-07-31T04:50:02;9.18;;;2.95;;
60169;SDS011;46042;49.444;6.862;2023-07-31T04:52:29;15.93;;;3.10;;
60169;SDS011;46042;49.444;6.862;2023-07-31T04:54:56;8.20;;;2.90;;
60169;SDS011;46042;49.444;6.862;2023-07-31T04:57:23;7.45;;;3.40;;
60169;SDS011;46042;49.444;6.862;2023-07-31T04:59:49;8.10;;;2.60;;
60169;SDS011;46042;49.444;6.862;2023-07-31T05:02:16;7.13;;;3.60;;
60169;SDS011;46042;49.444;6.862;2023-07-31T05:04:43;11.07;;;3.38;;
60169;SDS011;46042;49.444;6.862;2023-07-31T05:07:10;11.45;;;3.28;;
60169;SDS011;46042;49.444;6.862;2023-07-31T05:09:36;9.13;;;3.75;;
60169;SDS011;46042;49.444;6.862;2023-07-31T05:12:05;11.05;;;3.17;;
60169;SDS011;46042;49.444;6.862;2023-07-31T05:14:33;17.42;;;3.58;;
60169;SDS011;46042;49.444;6.862;2023-07-31T05:17:00;9.35;;;3.40;;
60169;SDS011;46042;49.444;6.862;2023-07-31T05:19:26;12.95;;;3.85;;
60169;SDS011;46042;49.444;6.862;2023-07-31T05:21:53;18.38;;;3.67;;
60169;SDS011;46042;49.444;6.862;2023-07-31T05:24:20;10.18;;;3.80;;
60169;SDS011;46042;49.444;6.862;2023-07-31T05:26:47;10.60;;;3.05;;
60169;SDS011;46042;49.444;6.862;2023-07-31T05:29:14;8.80;;;3.40;;
60169;SDS011;46042;49.444;6.862;2023-07-31T05:31:41;10.82;;;3.45;;
60169;SDS011;46042;49.444;6.862;2023-07-31T05:34:08;13.20;;;4.05;;
60169;SDS011;46042;49.444;6.862;2023-07-31T05:36:34;15.25;;;3.22;;
60169;SDS011;46042;49.444;6.862;2023-07-31T05:39:02;7.70;;;3.05;;
60169;SDS011;46042;49.444;6.862;2023-07-31T05:44:01;9.07;;;3.42;;
60169;SDS011;46042;49.444;6.862;2023-07-31T05:46:28;16.38;;;3.55;;
60169;SDS011;46042;49.444;6.862;2023-07-31T05:48:55;11.63;;;3.72;;
60169;SDS011;46042;49.444;6.862;2023-07-31T05:51:22;11.77;;;3.42;;
60169;SDS011;46042;49.444;6.862;2023-07-31T05:53:48;13.50;;;3.67;;
60169;SDS011;46042;49.444;6.862;2023-07-31T05:56:15;11.10;;;3.28;;
60169;SDS011;46042;49.444;6.862;2023-07-31T05:58:42;10.65;;;3.33;;
60169;SDS011;46042;49.444;6.862;2023-07-31T06:01:09;7.80;;;3.25;;
60169;SDS011;46042;49.444;6.862;2023-07-31T06:03:36;9.20;;;3.35;;
60169;SDS011;46042;49.444;6.862;2023-07-31T06:06:02;11.35;;;3.10;;
60169;SDS011;46042;49.444;6.862;2023-07-31T06:08:29;15.35;;;3.40;;
60169;SDS011;46042;49.444;6.862;2023-07-31T06:10:56;7.63;;;2.67;;
60169;SDS011;46042;49.444;6.862;2023-07-31T06:13:23;6.50;;;2.90;;
60169;SDS011;46042;49.444;6.862;2023-07-31T06:15:49;13.90;;;3.75;;
60169;SDS011;46042;49.444;6.862;2023-07-31T06:18:17;7.03;;;3.00;;
60169;SDS011;46042;49.444;6.862;2023-07-31T06:20:43;13.40;;;3.35;;
60169;SDS011;46042;49.444;6.862;2023-07-31T06:23:10;19.45;;;3.47;;
60169;SDS011;46042;49.444;6.862;2023-07-31T06:25:37;12.68;;;3.28;;
60169;SDS011;46042;49.444;6.862;2023-07-31T06:28:03;7.05;;;3.05;;
60169;SDS011;46042;49.444;6.862;2023-07-31T06:30:30;13.82;;;3.22;;
60169;SDS011;46042;49.444;6.862;2023-07-31T06:32:57;10.88;;;3.10;;
60169;SDS011;46042;49.444;6.862;2023-07-31T06:35:24;13.40;;;4.13;;
60169;SDS011;46042;49.444;6.862;2023-07-31T06:37:50;11.25;;;3.95;;
60169;SDS011;46042;49.444;6.862;2023-07-31T06:40:17;8.95;;;4.05;;
60169;SDS011;46042;49.444;6.862;2023-07-31T06:42:45;14.10;;;3.75;;
60169;SDS011;46042;49.444;6.862;2023-07-31T06:45:12;11.32;;;3.63;;
60169;SDS011;46042;49.444;6.862;2023-07-31T06:47:39;15.07;;;3.78;;
60169;SDS011;46042;49.444;6.862;2023-07-31T06:50:06;7.40;;;3.85;;
60169;SDS011;46042;49.444;6.862;2023-07-31T06:52:33;12.75;;;3.20;;
60169;SDS011;46042;49.444;6.862;2023-07-31T06:55:01;17.17;;;4.13;;
60169;SDS011;46042;49.444;6.862;2023-07-31T06:57:30;10.75;;;3.47;;
60169;SDS011;46042;49.444;6.862;2023-07-31T06:59:57;7.32;;;3.40;;
60169;SDS011;46042;49.444;6.862;2023-07-31T07:02:24;10.57;;;3.50;;
60169;SDS011;46042;49.444;6.862;2023-07-31T07:04:50;13.05;;;3.40;;
60169;SDS011;46042;49.444;6.862;2023-07-31T07:07:17;17.63;;;3.88;;
60169;SDS011;46042;49.444;6.862;2023-07-31T07:09:44;10.63;;;3.78;;
60169;SDS011;46042;49.444;6.862;2023-07-31T07:12:11;9.65;;;3.78;;
60169;SDS011;46042;49.444;6.862;2023-07-31T07:14:38;10.93;;;4.00;;
60169;SDS011;46042;49.444;6.862;2023-07-31T07:17:05;11.98;;;3.90;;
60169;SDS011;46042;49.444;6.862;2023-07-31T07:19:32;11.23;;;3.92;;
60169;SDS011;46042;49.444;6.862;2023-07-31T07:21:58;11.30;;;3.60;;
60169;SDS011;46042;49.444;6.862;2023-07-31T07:24:28;13.20;;;3.78;;
60169;SDS011;46042;49.444;6.862;2023-07-31T07:26:55;15.20;;;3.72;;
60169;SDS011;46042;49.444;6.862;2023-07-31T07:29:22;12.25;;;3.15;;
60169;SDS011;46042;49.444;6.862;2023-07-31T07:31:49;13.43;;;3.80;;
60169;SDS011;46042;49.444;6.862;2023-07-31T07:34:16;12.18;;;4.03;;
60169;SDS011;46042;49.444;6.862;2023-07-31T07:36:43;16.90;;;3.92;;
60169;SDS011;46042;49.444;6.862;2023-07-31T07:39:10;24.90;;;4.43;;
60169;SDS011;46042;49.444;6.862;2023-07-31T07:41:37;10.65;;;3.47;;
60169;SDS011;46042;49.444;6.862;2023-07-31T07:44:05;16.20;;;3.95;;
60169;SDS011;46042;49.444;6.862;2023-07-31T07:46:31;9.90;;;3.30;;
60169;SDS011;46042;49.444;6.862;2023-07-31T07:48:58;16.25;;;4.18;;
60169;SDS011;46042;49.444;6.862;2023-07-31T07:51:25;9.65;;;4.05;;
60169;SDS011;46042;49.444;6.862;2023-07-31T07:53:52;13.05;;;4.80;;
60169;SDS011;46042;49.444;6.862;2023-07-31T07:56:19;11.40;;;3.90;;
60169;SDS011;46042;49.444;6.862;2023-07-31T07:58:48;11.48;;;3.63;;
60169;SDS011;46042;49.444;6.862;2023-07-31T08:01:16;17.50;;;4.97;;
60169;SDS011;46042;49.444;6.862;2023-07-31T08:03:43;13.90;;;3.97;;
60169;SDS011;46042;49.444;6.862;2023-07-31T08:06:10;9.00;;;3.58;;
60169;SDS011;46042;49.444;6.862;2023-07-31T08:08:37;11.77;;;3.95;;
60169;SDS011;46042;49.444;6.862;2023-07-31T08:11:04;9.50;;;4.03;;
60169;SDS011;46042;49.444;6.862;2023-07-31T08:13:31;10.85;;;3.22;;
60169;SDS011;46042;49.444;6.862;2023-07-31T08:15:57;10.48;;;3.72;;
60169;SDS011;46042;49.444;6.862;2023-07-31T08:18:30;11.00;;;3.83;;
60169;SDS011;46042;49.444;6.862;2023-07-31T08:21:03;9.50;;;3.60;;
60169;SDS011;46042;49.444;6.862;2023-07-31T08:23:36;11.80;;;3.58;;
60169;SDS011;46042;49.444;6.862;2023-07-31T08:26:04;12.07;;;3.85;;
60169;SDS011;46042;49.444;6.862;2023-07-31T08:28:37;8.82;;;3.67;;
60169;SDS011;46042;49.444;6.862;2023-07-31T08:31:08;9.52;;;3.63;;
60169;SDS011;46042;49.444;6.862;2023-07-31T08:33:37;11.00;;;3.72;;
60169;SDS011;46042;49.444;6.862;2023-07-31T08:36:07;11.60;;;3.72;;
60169;SDS011;46042;49.444;6.862;2023-07-31T08:38:36;11.65;;;3.58;;
60169;SDS011;46042;49.444;6.862;2023-07-31T08:41:13;10.43;;;4.10;;
60169;SDS011;46042;49.444;6.862;2023-07-31T08:43:40;12.90;;;4.07;;
60169;SDS011;46042;49.444;6.862;2023-07-31T08:46:23;13.60;;;4.13;;
60169;SDS011;46042;49.444;6.862;2023-07-31T08:48:59;13.48;;;3.60;;
60169;SDS011;46042;49.444;6.862;2023-07-31T08:51:30;17.20;;;4.88;;
60169;SDS011;46042;49.444;6.862;2023-07-31T08:54:08;13.57;;;4.43;;
60169;SDS011;46042;49.444;6.862;2023-07-31T08:56:45;10.88;;;3.53;;
60169;SDS011;46042;49.444;6.862;2023-07-31T08:59:13;11.80;;;4.35;;
60169;SDS011;46042;49.444;6.862;2023-07-31T09:01:47;11.85;;;3.78;;
60169;SDS011;46042;49.444;6.862;2023-07-31T09:04:19;11.75;;;4.07;;
60169;SDS011;46042;49.444;6.862;2023-07-31T09:06:48;11.90;;;4.03;;
60169;SDS011;46042;49.444;6.862;2023-07-31T09:09:23;11.80;;;3.78;;
60169;SDS011;46042;49.444;6.862;2023-07-31T09:11:51;18.77;;;3.90;;
60169;SDS011;46042;49.444;6.862;2023-07-31T09:14:25;15.27;;;4.70;;
60169;SDS011;46042;49.444;6.862;2023-07-31T09:17:02;13.52;;;4.20;;
60169;SDS011;46042;49.444;6.862;2023-07-31T09:19:35;13.30;;;3.85;;
60169;SDS011;46042;49.444;6.862;2023-07-31T09:22:15;8.05;;;4.22;;
60169;SDS011;46042;49.444;6.862;2023-07-31T09:24:42;15.35;;;3.95;;
60169;SDS011;46042;49.444;6.862;2023-07-31T09:27:09;13.85;;;4.80;;
60169;SDS011;46042;49.444;6.862;2023-07-31T09:29:36;10.32;;;4.18;;
60169;SDS011;46042;49.444;6.862;2023-07-31T09:32:05;11.93;;;4.18;;
60169;SDS011;46042;49.444;6.862;2023-07-31T09:34:55;14.82;;;4.13;;
60169;SDS011;46042;49.444;6.862;2023-07-31T09:37:24;13.77;;;4.32;;
60169;SDS011;46042;49.444;6.862;2023-07-31T09:39:53;12.88;;;4.88;;
60169;SDS011;46042;49.444;6.862;2023-07-31T09:42:29;9.45;;;3.45;;
60169;SDS011;46042;49.444;6.862;2023-07-31T09:45:12;8.93;;;4.15;;
60169;SDS011;46042;49.444;6.862;2023-07-31T09:47:47;11.52;;;3.90;;
60169;SDS011;46042;49.444;6.862;2023-07-31T09:50:23;13.25;;;5.50;;
60169;SDS011;46042;49.444;6.862;2023-07-31T09:53:08;15.50;;;4.57;;
60169;SDS011;46042;49.444;6.862;2023-07-31T09:55:36;9.93;;;3.72;;
60169;SDS011;46042;49.444;6.862;2023-07-31T09:58:08;17.38;;;3.72;;
60169;SDS011;46042;49.444;6.862;2023-07-31T10:00:40;9.65;;;4.05;;
60169;SDS011;46042;49.444;6.862;2023-07-31T10:03:19;9.10;;;3.95;;
60169;SDS011;46042;49.444;6.862;2023-07-31T10:05:49;12.65;;;3.92;;
60169;SDS011;46042;49.444;6.862;2023-07-31T10:08:21;9.48;;;3.80;;
60169;SDS011;46042;49.444;6.862;2023-07-31T10:11:06;10.10;;;4.25;;
60169;SDS011;46042;49.444;6.862;2023-07-31T10:13:48;13.43;;;4.13;;
60169;SDS011;46042;49.444;6.862;2023-07-31T10:16:19;12.07;;;4.03;;
60169;SDS011;46042;49.444;6.862;2023-07-31T10:18:52;11.50;;;3.78;;
60169;SDS011;46042;49.444;6.862;2023-07-31T10:21:33;8.07;;;3.97;;
60169;SDS011;46042;49.444;6.862;2023-07-31T10:24:04;11.93;;;3.90;;
60169;SDS011;46042;49.444;6.862;2023-07-31T10:26:36;7.65;;;3.70;;
60169;SDS011;46042;49.444;6.862;2023-07-31T10:29:09;9.07;;;3.58;;
60169;SDS011;46042;49.444;6.862;2023-07-31T10:31:43;7.75;;;3.97;;
60169;SDS011;46042;49.444;6.862;2023-07-31T10:34:17;9.52;;;3.45;;
60169;SDS011;46042;49.444;6.862;2023-07-31T10:36:44;14.63;;;3.90;;
60169;SDS011;46042;49.444;6.862;2023-07-31T10:39:38;7.53;;;3.70;;
60169;SDS011;46042;49.444;6.862;2023-07-31T10:42:12;9.40;;;4.60;;
60169;SDS011;46042;49.444;6.862;2023-07-31T10:44:46;19.58;;;3.92;;
60169;SDS011;46042;49.444;6.862;2023-07-31T10:47:15;7.90;;;3.75;;
60169;SDS011;46042;49.444;6.862;2023-07-31T10:49:46;7.20;;;4.13;;
60169;SDS011;46042;49.444;6.862;2023-07-31T10:52:20;12.02;;;3.53;;
60169;SDS011;46042;49.444;6.862;2023-07-31T10:55:13;6.70;;;3.13;;
60169;SDS011;46042;49.444;6.862;2023-07-31T10:57:46;13.23;;;3.55;;
60169;SDS011;46042;49.444;6.862;2023-07-31T11:02:59;8.90;;;3.20;;
60169;SDS011;46042;49.444;6.862;2023-07-31T11:08:32;11.43;;;3.78;;
60169;SDS011;46042;49.444;6.862;2023-07-31T11:11:07;8.00;;;3.55;;
60169;SDS011;46042;49.444;6.862;2023-07-31T11:13:52;10.35;;;3.80;;
60169;SDS011;46042;49.444;6.862;2023-07-31T11:16:21;8.55;;;3.35;;
60169;SDS011;46042;49.444;6.862;2023-07-31T11:18:56;14.50;;;3.72;;
60169;SDS011;46042;49.444;6.862;2023-07-31T11:21:36;8.95;;;3.45;;
60169;SDS011;46042;49.444;6.862;2023-07-31T11:24:38;9.23;;;3.70;;
60169;SDS011;46042;49.444;6.862;2023-07-31T11:27:08;9.63;;;3.72;;
60169;SDS011;46042;49.444;6.862;2023-07-31T11:29:37;11.13;;;4.10;;
60169;SDS011;46042;49.444;6.862;2023-07-31T11:32:15;9.18;;;3.40;;
60169;SDS011;46042;49.444;6.862;2023-07-31T11:34:56;8.10;;;3.65;;
60169;SDS011;46042;49.444;6.862;2023-07-31T11:37:46;23.80;;;4.22;;
60169;SDS011;46042;49.444;6.862;2023-07-31T11:40:18;10.75;;;3.58;;
60169;SDS011;46042;49.444;6.862;2023-07-31T11:42:53;9.50;;;3.30;;
60169;SDS011;46042;49.444;6.862;2023-07-31T11:45:25;5.63;;;3.03;;
60169;SDS011;46042;49.444;6.862;2023-07-31T11:48:02;10.00;;;3.22;;
60169;SDS011;46042;49.444;6.862;2023-07-31T11:50:38;10.80;;;3.03;;
60169;SDS011;46042;49.444;6.862;2023-07-31T11:53:10;5.88;;;3.28;;
60169;SDS011;46042;49.444;6.862;2023-07-31T11:55:53;7.95;;;3.13;;
60169;SDS011;46042;49.444;6.862;2023-07-31T11:58:24;12.63;;;3.53;;
60169;SDS011;46042;49.444;6.862;2023-07-31T12:00:57;11.55;;;3.20;;
60169;SDS011;46042;49.444;6.862;2023-07-31T12:03:37;7.95;;;3.28;;
60169;SDS011;46042;49.444;6.862;2023-07-31T12:06:13;6.30;;;2.90;;
60169;SDS011;46042;49.444;6.862;2023-07-31T12:09:09;15.25;;;3.03;;
60169;SDS011;46042;49.444;6.862;2023-07-31T12:11:48;6.30;;;2.42;;
60169;SDS011;46042;49.444;6.862;2023-07-31T12:14:25;8.25;;;2.95;;
60169;SDS011;46042;49.444;6.862;2023-07-31T12:17:04;4.68;;;2.35;;
60169;SDS011;46042;49.444;6.862;2023-07-31T12:19:37;8.30;;;2.75;;
60169;SDS011;46042;49.444;6.862;2023-07-31T12:22:13;7.80;;;2.95;;
60169;SDS011;46042;49.444;6.862;2023-07-31T12:24:53;6.47;;;3.70;;
60169;SDS011;46042;49.444;6.862;2023-07-31T12:27:21;4.97;;;2.45;;
60169;SDS011;46042;49.444;6.862;2023-07-31T12:29:55;7.60;;;2.75;;
60169;SDS011;46042;49.444;6.862;2023-07-31T12:32:24;6.07;;;2.75;;
60169;SDS011;46042;49.444;6.862;2023-07-31T12:34:59;6.18;;;2.60;;
60169;SDS011;46042;49.444;6.862;2023-07-31T12:37:35;5.47;;;2.75;;
60169;SDS011;46042;49.444;6.862;2023-07-31T12:40:04;5.38;;;2.53;;
60169;SDS011;46042;49.444;6.862;2023-07-31T12:42:35;7.82;;;2.90;;
60169;SDS011;46042;49.444;6.862;2023-07-31T12:45:04;7.93;;;2.92;;
60169;SDS011;46042;49.444;6.862;2023-07-31T12:47:38;6.50;;;2.72;;
60169;SDS011;46042;49.444;6.862;2023-07-31T12:50:05;4.57;;;2.42;;
60169;SDS011;46042;49.444;6.862;2023-07-31T12:52:35;5.93;;;2.47;;
60169;SDS011;46042;49.444;6.862;2023-07-31T12:55:03;6.18;;;2.70;;
60169;SDS011;46042;49.444;6.862;2023-07-31T12:57:34;6.75;;;2.55;;
60169;SDS011;46042;49.444;6.862;2023-07-31T13:00:12;4.57;;;2.45;;
60169;SDS011;46042;49.444;6.862;2023-07-31T13:02:40;5.03;;;2.45;;
60169;SDS011;46042;49.444;6.862;2023-07-31T13:05:13;7.78;;;2.30;;
60169;SDS011;46042;49.444;6.862;2023-07-31T13:07:41;5.97;;;2.40;;
60169;SDS011;46042;49.444;6.862;2023-07-31T13:10:08;4.88;;;2.50;;
60169;SDS011;46042;49.444;6.862;2023-07-31T13:12:35;4.80;;;2.53;;
60169;SDS011;46042;49.444;6.862;2023-07-31T13:15:07;4.93;;;2.38;;
60169;SDS011;46042;49.444;6.862;2023-07-31T13:17:38;6.18;;;2.28;;
60169;SDS011;46042;49.444;6.862;2023-07-31T13:20:06;5.50;;;2.40;;
60169;SDS011;46042;49.444;6.862;2023-07-31T13:22:33;4.60;;;2.53;;
60169;SDS011;46042;49.444;6.862;2023-07-31T13:25:00;5.10;;;2.35;;
60169;SDS011;46042;49.444;6.862;2023-07-31T13:27:28;4.93;;;2.58;;
60169;SDS011;46042;49.444;6.862;2023-07-31T13:29:55;7.18;;;3.10;;
60169;SDS011;46042;49.444;6.862;2023-07-31T13:32:22;4.65;;;2.33;;
60169;SDS011;46042;49.444;6.862;2023-07-31T13:34:49;5.53;;;2.83;;
60169;SDS011;46042;49.444;6.862;2023-07-31T13:37:19;7.47;;;3.00;;
60169;SDS011;46042;49.444;6.862;2023-07-31T13:39:49;10.63;;;2.60;;
60169;SDS011;46042;49.444;6.862;2023-07-31T13:42:16;4.47;;;2.58;;
60169;SDS011;46042;49.444;6.862;2023-07-31T13:44:43;10.73;;;3.10;;
60169;SDS011;46042;49.444;6.862;2023-07-31T13:47:13;5.20;;;2.50;;
60169;SDS011;46042;49.444;6.862;2023-07-31T13:49:57;6.00;;;2.72;;
60169;SDS011;46042;49.444;6.862;2023-07-31T13:52:29;5.30;;;2.53;;
60169;SDS011;46042;49.444;6.862;2023-07-31T13:54:56;6.47;;;2.72;;
60169;SDS011;46042;49.444;6.862;2023-07-31T13:57:28;5.07;;;2.90;;
60169;SDS011;46042;49.444;6.862;2023-07-31T14:00:03;7.03;;;2.65;;
60169;SDS011;46042;49.444;6.862;2023-07-31T14:02:35;5.22;;;3.10;;
60169;SDS011;46042;49.444;6.862;2023-07-31T14:05:08;8.35;;;3.15;;
60169;SDS011;46042;49.444;6.862;2023-07-31T14:07:44;6.32;;;3.60;;
60169;SDS011;46042;49.444;6.862;2023-07-31T14:10:24;6.32;;;2.88;;
60169;SDS011;46042;49.444;6.862;2023-07-31T14:12:58;5.55;;;3.15;;
60169;SDS011;46042;49.444;6.862;2023-07-31T14:15:40;7.25;;;3.15;;
60169;SDS011;46042;49.444;6.862;2023-07-31T14:18:10;16.70;;;3.53;;
60169;SDS011;46042;49.444;6.862;2023-07-31T14:20:42;8.38;;;3.78;;
60169;SDS011;46042;49.444;6.862;2023-07-31T14:23:16;11.68;;;4.82;;
60169;SDS011;46042;49.444;6.862;2023-07-31T14:25:43;7.78;;;3.08;;
60169;SDS011;46042;49.444;6.862;2023-07-31T14:28:20;7.15;;;3.78;;
60169;SDS011;46042;49.444;6.862;2023-07-31T14:30:51;6.72;;;2.90;;
60169;SDS011;46042;49.444;6.862;2023-07-31T14:33:18;6.55;;;2.92;;
60169;SDS011;46042;49.444;6.862;2023-07-31T14:35:54;8.52;;;3.47;;
60169;SDS011;46042;49.444;6.862;2023-07-31T14:38:28;38.25;;;8.23;;
60169;SDS011;46042;49.444;6.862;2023-07-31T14:41:02;127.53;;;21.30;;
60169;SDS011;46042;49.444;6.862;2023-07-31T14:43:34;7.53;;;3.83;;
60169;SDS011;46042;49.444;6.862;2023-07-31T14:46:12;7.70;;;3.63;;
60169;SDS011;46042;49.444;6.862;2023-07-31T14:48:41;35.55;;;8.43;;
60169;SDS011;46042;49.444;6.862;2023-07-31T14:51:17;243.70;;;32.80;;
60169;SDS011;46042;49.444;6.862;2023-07-31T14:53:44;141.77;;;23.20;;
60169;SDS011;46042;49.444;6.862;2023-07-31T14:56:20;169.68;;;25.85;;
60169;SDS011;46042;49.444;6.862;2023-07-31T14:59:04;26.33;;;6.30;;
60169;SDS011;46042;49.444;6.862;2023-07-31T15:01:46;18.42;;;4.88;;
60169;SDS011;46042;49.444;6.862;2023-07-31T15:04:13;6.93;;;3.22;;
60169;SDS011;46042;49.444;6.862;2023-07-31T15:06:49;5.70;;;3.60;;
60169;SDS011;46042;49.444;6.862;2023-07-31T15:09:19;6.40;;;3.60;;
60169;SDS011;46042;49.444;6.862;2023-07-31T15:11:53;19.52;;;5.28;;
60169;SDS011;46042;49.444;6.862;2023-07-31T15:14:31;57.15;;;8.13;;